sensor_id;sensor_type;location;lat;lon;timestamp;temperature;humidity
9668;DHT22;4872;48.316;10.650;2022-09-01T04:10:05;16.00;99.90
9668;DHT22;4872;48.316;10.650;2022-09-01T04:12:36;16.00;99.90
9668;DHT22;4872;48.316;10.650;2022-09-01T04:15:04;16.00;99.90
9668;DHT22;4872;48.316;10.650;2022-09-01T04:17:33;16.00;99.90
9668;DHT22;4872;48.316;10.650;2022-09-01T04:20:18;16.00;99.90
9668;DHT22;4872;48.316;10.650;2022-09-01T04:22:46;16.10;99.90
9668;DHT22;4872;48.316;10.650;2022-09-01T04:25:16;16.10;99.90
9668;DHT22;4872;48.316;10.650;2022-09-01T04:27:47;16.10;99.90
9668;DHT22;4872;48.316;10.650;2022-09-01T04:30:14;16.20;99.90
9668;DHT22;4872;48.316;10.650;2022-09-01T04:32:41;16.20;99.90
9668;DHT22;4872;48.316;10.650;2022-09-01T04:35:11;16.20;99.90
9668;DHT22;4872;48.316;10.650;2022-09-01T04:37:41;16.20;99.90
9668;DHT22;4872;48.316;10.650;2022-09-01T04:40:09;16.20;99.90
9668;DHT22;4872;48.316;10.650;2022-09-01T04:42:37;16.20;99.90
9668;DHT22;4872;48.316;10.650;2022-09-01T04:45:05;16.20;99.90
9668;DHT22;4872;48.316;10.650;2022-09-01T04:47:35;16.20;99.90
9668;DHT22;4872;48.316;10.650;2022-09-01T04:50:08;16.20;99.90
9668;DHT22;4872;48.316;10.650;2022-09-01T04:52:38;16.20;99.90
9668;DHT22;4872;48.316;10.650;2022-09-01T04:55:07;16.20;99.90
9668;DHT22;4872;48.316;10.650;2022-09-01T04:57:43;16.20;99.90
9668;DHT22;4872;48.316;10.650;2022-09-01T05:00:13;16.30;99.90
9668;DHT22;4872;48.316;10.650;2022-09-01T05:02:47;16.30;99.90
9668;DHT22;4872;48.316;10.650;2022-09-01T05:05:15;16.20;99.90
9668;DHT22;4872;48.316;10.650;2022-09-01T05:07:42;16.20;99.90
9668;DHT22;4872;48.316;10.650;2022-09-01T05:10:09;16.20;99.90
9668;DHT22;4872;48.316;10.650;2022-09-01T05:12:36;16.20;99.90
9668;DHT22;4872;48.316;10.650;2022-09-01T05:15:05;16.20;99.90
9668;DHT22;4872;48.316;10.650;2022-09-01T05:17:34;16.10;99.90
9668;DHT22;4872;48.316;10.650;2022-09-01T05:20:03;16.10;99.90
9668;DHT22;4872;48.316;10.650;2022-09-01T05:22:31;16.10;99.90
9668;DHT22;4872;48.316;10.650;2022-09-01T05:24:58;16.00;99.90
9668;DHT22;4872;48.316;10.650;2022-09-01T05:27:36;16.10;99.90
9668;DHT22;4872;48.316;10.650;2022-09-01T05:30:06;16.30;99.90
9668;DHT22;4872;48.316;10.650;2022-09-01T05:32:34;16.10;99.90
9668;DHT22;4872;48.316;10.650;2022-09-01T05:35:02;16.10;99.90
9668;DHT22;4872;48.316;10.650;2022-09-01T05:37:33;16.10;99.90
9668;DHT22;4872;48.316;10.650;2022-09-01T05:40:00;16.10;99.90
9668;DHT22;4872;48.316;10.650;2022-09-01T05:42:28;16.10;99.90
9668;DHT22;4872;48.316;10.650;2022-09-01T05:44:54;16.10;99.90
9668;DHT22;4872;48.316;10.650;2022-09-01T05:47:24;16.10;99.90
9668;DHT22;4872;48.316;10.650;2022-09-01T05:49:51;16.10;99.90
9668;DHT22;4872;48.316;10.650;2022-09-01T05:52:21;16.10;99.90
9668;DHT22;4872;48.316;10.650;2022-09-01T05:54:51;16.10;99.90
9668;DHT22;4872;48.316;10.650;2022-09-01T05:57:18;16.10;99.90
9668;DHT22;4872;48.316;10.650;2022-09-01T05:59:45;16.10;99.90
9668;DHT22;4872;48.316;10.650;2022-09-01T06:02:18;16.20;99.90
9668;DHT22;4872;48.316;10.650;2022-09-01T06:04:47;16.20;99.90
9668;DHT22;4872;48.316;10.650;2022-09-01T06:07:15;16.20;99.90
9668;DHT22;4872;48.316;10.650;2022-09-01T06:09:44;16.30;99.90
9668;DHT22;4872;48.316;10.650;2022-09-01T06:12:11;16.30;99.90
9668;DHT22;4872;48.316;10.650;2022-09-01T06:14:49;16.30;99.90
9668;DHT22;4872;48.316;10.650;2022-09-01T06:17:18;16.30;99.90
9668;DHT22;4872;48.316;10.650;2022-09-01T06:19:50;16.40;99.90
9668;DHT22;4872;48.316;10.650;2022-09-01T06:22:18;16.40;99.90
9668;DHT22;4872;48.316;10.650;2022-09-01T06:24:45;16.60;99.90
9668;DHT22;4872;48.316;10.650;2022-09-01T06:27:12;16.60;99.90
9668;DHT22;4872;48.316;10.650;2022-09-01T06:29:43;16.60;99.90
9668;DHT22;4872;48.316;10.650;2022-09-01T06:32:12;16.70;99.90
9668;DHT22;4872;48.316;10.650;2022-09-01T06:34:40;16.70;99.90
9668;DHT22;4872;48.316;10.650;2022-09-01T06:37:10;16.80;99.90
9668;DHT22;4872;48.316;10.650;2022-09-01T06:39:38;16.80;99.90
9668;DHT22;4872;48.316;10.650;2022-09-01T06:42:05;16.90;99.90
9668;DHT22;4872;48.316;10.650;2022-09-01T06:44:34;16.90;99.90
9668;DHT22;4872;48.316;10.650;2022-09-01T06:47:00;17.00;99.90
9668;DHT22;4872;48.316;10.650;2022-09-01T06:49:27;17.00;99.90
9668;DHT22;4872;48.316;10.650;2022-09-01T06:51:59;17.00;99.90
9668;DHT22;4872;48.316;10.650;2022-09-01T06:54:29;17.00;99.90
9668;DHT22;4872;48.316;10.650;2022-09-01T06:56:58;17.00;99.90
9668;DHT22;4872;48.316;10.650;2022-09-01T06:59:28;16.90;99.90
9668;DHT22;4872;48.316;10.650;2022-09-01T07:01:56;17.00;99.90
9668;DHT22;4872;48.316;10.650;2022-09-01T07:04:25;17.00;99.90
9668;DHT22;4872;48.316;10.650;2022-09-01T07:06:54;17.20;99.90
9668;DHT22;4872;48.316;10.650;2022-09-01T07:09:22;17.20;99.90
9668;DHT22;4872;48.316;10.650;2022-09-01T07:11:50;17.20;99.90
9668;DHT22;4872;48.316;10.650;2022-09-01T07:14:17;17.20;99.90
9668;DHT22;4872;48.316;10.650;2022-09-01T07:16:45;17.20;99.90
9668;DHT22;4872;48.316;10.650;2022-09-01T07:19:12;17.10;99.90
9668;DHT22;4872;48.316;10.650;2022-09-01T07:21:40;17.20;99.90
9668;DHT22;4872;48.316;10.650;2022-09-01T07:24:07;17.20;99.90
9668;DHT22;4872;48.316;10.650;2022-09-01T07:26:34;17.20;99.90
9668;DHT22;4872;48.316;10.650;2022-09-01T07:29:03;17.20;99.90
9668;DHT22;4872;48.316;10.650;2022-09-01T07:31:32;17.20;99.90
9668;DHT22;4872;48.316;10.650;2022-09-01T07:34:01;17.20;99.90
9668;DHT22;4872;48.316;10.650;2022-09-01T07:36:29;17.10;99.90
9668;DHT22;4872;48.316;10.650;2022-09-01T07:38:56;17.20;99.90
9668;DHT22;4872;48.316;10.650;2022-09-01T07:41:24;17.20;99.90
9668;DHT22;4872;48.316;10.650;2022-09-01T07:43:51;17.10;99.90
9668;DHT22;4872;48.316;10.650;2022-09-01T07:46:22;17.10;99.90
9668;DHT22;4872;48.316;10.650;2022-09-01T07:48:51;17.20;99.90
9668;DHT22;4872;48.316;10.650;2022-09-01T07:51:20;17.20;99.90
9668;DHT22;4872;48.316;10.650;2022-09-01T07:53:48;17.30;99.90
9668;DHT22;4872;48.316;10.650;2022-09-01T07:56:17;17.30;99.90
9668;DHT22;4872;48.316;10.650;2022-09-01T07:58:45;17.40;99.90
9668;DHT22;4872;48.316;10.650;2022-09-01T08:01:15;17.40;99.90
9668;DHT22;4872;48.316;10.650;2022-09-01T08:03:44;17.40;99.90
9668;DHT22;4872;48.316;10.650;2022-09-01T08:06:14;17.40;99.90
9668;DHT22;4872;48.316;10.650;2022-09-01T08:08:44;17.50;99.90
9668;DHT22;4872;48.316;10.650;2022-09-01T08:11:16;17.50;99.90
9668;DHT22;4872;48.316;10.650;2022-09-01T08:13:44;17.60;99.90
9668;DHT22;4872;48.316;10.650;2022-09-01T08:16:12;17.60;99.90
9668;DHT22;4872;48.316;10.650;2022-09-01T08:18:39;17.70;99.90
9668;DHT22;4872;48.316;10.650;2022-09-01T08:21:10;17.70;99.90
9668;DHT22;4872;48.316;10.650;2022-09-01T08:23:37;17.80;99.90
9668;DHT22;4872;48.316;10.650;2022-09-01T08:26:05;17.80;99.90
9668;DHT22;4872;48.316;10.650;2022-09-01T08:28:32;17.90;99.90
9668;DHT22;4872;48.316;10.650;2022-09-01T08:30:59;17.90;99.90
9668;DHT22;4872;48.316;10.650;2022-09-01T08:33:29;17.80;99.90
9668;DHT22;4872;48.316;10.650;2022-09-01T08:36:00;17.90;99.90
9668;DHT22;4872;48.316;10.650;2022-09-01T08:38:28;17.80;99.90
9668;DHT22;4872;48.316;10.650;2022-09-01T08:40:56;17.90;99.90
9668;DHT22;4872;48.316;10.650;2022-09-01T08:43:30;17.90;99.90
9668;DHT22;4872;48.316;10.650;2022-09-01T08:46:07;17.80;99.90
9668;DHT22;4872;48.316;10.650;2022-09-01T08:48:38;17.80;99.90
9668;DHT22;4872;48.316;10.650;2022-09-01T08:51:14;17.90;99.90
9668;DHT22;4872;48.316;10.650;2022-09-01T08:53:48;17.90;99.90
9668;DHT22;4872;48.316;10.650;2022-09-01T08:56:18;18.00;99.90
9668;DHT22;4872;48.316;10.650;2022-09-01T08:58:45;18.00;99.90
9668;DHT22;4872;48.316;10.650;2022-09-01T09:01:19;17.90;99.90
9668;DHT22;4872;48.316;10.650;2022-09-01T09:04:03;18.00;99.90
9668;DHT22;4872;48.316;10.650;2022-09-01T09:06:37;18.00;99.90
9668;DHT22;4872;48.316;10.650;2022-09-01T09:09:10;18.10;99.90
9668;DHT22;4872;48.316;10.650;2022-09-01T09:11:54;18.20;99.90
9668;DHT22;4872;48.316;10.650;2022-09-01T09:14:36;18.30;99.90
9668;DHT22;4872;48.316;10.650;2022-09-01T09:17:07;18.30;99.90
9668;DHT22;4872;48.316;10.650;2022-09-01T09:19:36;18.20;99.90
9668;DHT22;4872;48.316;10.650;2022-09-01T09:22:07;18.30;99.90
9668;DHT22;4872;48.316;10.650;2022-09-01T09:24:42;18.20;99.90
9668;DHT22;4872;48.316;10.650;2022-09-01T09:27:19;18.20;99.90
9668;DHT22;4872;48.316;10.650;2022-09-01T09:29:48;18.40;99.90
9668;DHT22;4872;48.316;10.650;2022-09-01T09:32:17;18.50;99.90
9668;DHT22;4872;48.316;10.650;2022-09-01T09:34:45;18.40;99.90
9668;DHT22;4872;48.316;10.650;2022-09-01T09:37:27;18.50;99.90
9668;DHT22;4872;48.316;10.650;2022-09-01T09:40:09;18.70;99.90
9668;DHT22;4872;48.316;10.650;2022-09-01T09:42:36;18.70;99.90
9668;DHT22;4872;48.316;10.650;2022-09-01T09:45:06;18.80;99.90
9668;DHT22;4872;48.316;10.650;2022-09-01T09:47:40;18.90;99.90
9668;DHT22;4872;48.316;10.650;2022-09-01T09:50:16;18.90;99.90
9668;DHT22;4872;48.316;10.650;2022-09-01T09:52:43;19.00;99.90
9668;DHT22;4872;48.316;10.650;2022-09-01T09:55:25;19.10;99.90
9668;DHT22;4872;48.316;10.650;2022-09-01T09:57:55;19.10;99.90
9668;DHT22;4872;48.316;10.650;2022-09-01T10:00:24;19.20;99.90
9668;DHT22;4872;48.316;10.650;2022-09-01T10:02:55;19.40;99.90
9668;DHT22;4872;48.316;10.650;2022-09-01T10:05:32;19.40;99.90
9668;DHT22;4872;48.316;10.650;2022-09-01T10:07:59;19.50;99.90
9668;DHT22;4872;48.316;10.650;2022-09-01T10:10:30;19.50;99.90
9668;DHT22;4872;48.316;10.650;2022-09-01T10:13:02;19.70;99.90
9668;DHT22;4872;48.316;10.650;2022-09-01T10:15:31;19.70;99.90
9668;DHT22;4872;48.316;10.650;2022-09-01T10:18:03;19.80;99.90
9668;DHT22;4872;48.316;10.650;2022-09-01T10:20:33;19.80;99.90
9668;DHT22;4872;48.316;10.650;2022-09-01T10:23:01;19.90;99.90
9668;DHT22;4872;48.316;10.650;2022-09-01T10:25:31;20.00;99.90
9668;DHT22;4872;48.316;10.650;2022-09-01T10:28:05;20.00;99.90
9668;DHT22;4872;48.316;10.650;2022-09-01T10:30:36;20.10;99.90
9668;DHT22;4872;48.316;10.650;2022-09-01T10:33:07;20.00;99.90
9668;DHT22;4872;48.316;10.650;2022-09-01T10:35:36;20.20;99.90
9668;DHT22;4872;48.316;10.650;2022-09-01T10:38:08;20.20;99.90
9668;DHT22;4872;48.316;10.650;2022-09-01T10:40:41;20.40;99.90
9668;DHT22;4872;48.316;10.650;2022-09-01T10:43:35;20.50;99.90
9668;DHT22;4872;48.316;10.650;2022-09-01T10:49:02;20.50;99.90
9668;DHT22;4872;48.316;10.650;2022-09-01T10:51:43;20.50;99.90
9668;DHT22;4872;48.316;10.650;2022-09-01T10:57:39;20.50;99.90
9668;DHT22;4872;48.316;10.650;2022-09-01T11:00:45;20.50;99.90
9668;DHT22;4872;48.316;10.650;2022-09-01T11:03:32;20.40;99.90
9668;DHT22;4872;48.316;10.650;2022-09-01T11:06:00;20.40;99.90
9668;DHT22;4872;48.316;10.650;2022-09-01T11:08:41;20.40;99.90
9668;DHT22;4872;48.316;10.650;2022-09-01T11:11:15;20.50;99.90
9668;DHT22;4872;48.316;10.650;2022-09-01T11:13:49;20.40;99.90
9668;DHT22;4872;48.316;10.650;2022-09-01T11:16:33;20.40;99.90
9668;DHT22;4872;48.316;10.650;2022-09-01T11:19:26;20.40;99.90
9668;DHT22;4872;48.316;10.650;2022-09-01T11:25:31;20.40;99.90
9668;DHT22;4872;48.316;10.650;2022-09-01T11:31:10;20.50;99.90
9668;DHT22;4872;48.316;10.650;2022-09-01T11:33:52;20.60;99.90
9668;DHT22;4872;48.316;10.650;2022-09-01T11:36:26;20.60;99.90
9668;DHT22;4872;48.316;10.650;2022-09-01T11:39:02;20.80;99.90
9668;DHT22;4872;48.316;10.650;2022-09-01T11:41:33;20.80;99.90
9668;DHT22;4872;48.316;10.650;2022-09-01T11:44:06;20.90;99.90
9668;DHT22;4872;48.316;10.650;2022-09-01T11:46:37;21.10;99.90
9668;DHT22;4872;48.316;10.650;2022-09-01T11:49:22;21.20;99.90
9668;DHT22;4872;48.316;10.650;2022-09-01T11:51:51;21.30;99.90
9668;DHT22;4872;48.316;10.650;2022-09-01T11:54:17;21.60;99.90
9668;DHT22;4872;48.316;10.650;2022-09-01T11:56:44;21.60;99.90
9668;DHT22;4872;48.316;10.650;2022-09-01T11:59:11;21.80;99.60
9668;DHT22;4872;48.316;10.650;2022-09-01T12:01:39;21.90;99.50
9668;DHT22;4872;48.316;10.650;2022-09-01T12:04:21;22.00;99.90
9668;DHT22;4872;48.316;10.650;2022-09-01T12:06:56;22.10;99.90
9668;DHT22;4872;48.316;10.650;2022-09-01T12:09:32;22.10;99.90
9668;DHT22;4872;48.316;10.650;2022-09-01T12:11:59;22.10;99.90
9668;DHT22;4872;48.316;10.650;2022-09-01T12:14:26;22.10;99.90
9668;DHT22;4872;48.316;10.650;2022-09-01T12:17:00;22.30;99.90
9668;DHT22;4872;48.316;10.650;2022-09-01T12:19:30;22.40;99.90
9668;DHT22;4872;48.316;10.650;2022-09-01T12:22:00;22.40;99.60
9668;DHT22;4872;48.316;10.650;2022-09-01T12:24:28;22.40;99.90
9668;DHT22;4872;48.316;10.650;2022-09-01T12:26:57;22.40;99.40
9668;DHT22;4872;48.316;10.650;2022-09-01T12:29:25;22.30;99.40
9668;DHT22;4872;48.316;10.650;2022-09-01T12:31:53;22.10;99.70
9668;DHT22;4872;48.316;10.650;2022-09-01T12:34:27;22.20;99.40
9668;DHT22;4872;48.316;10.650;2022-09-01T12:37:09;22.10;99.50
9668;DHT22;4872;48.316;10.650;2022-09-01T12:39:37;22.10;99.40
9668;DHT22;4872;48.316;10.650;2022-09-01T12:42:08;21.90;99.30
9668;DHT22;4872;48.316;10.650;2022-09-01T12:44:43;21.90;98.70
9668;DHT22;4872;48.316;10.650;2022-09-01T12:47:17;21.80;98.70
9668;DHT22;4872;48.316;10.650;2022-09-01T12:50:03;21.80;98.40
9668;DHT22;4872;48.316;10.650;2022-09-01T12:52:31;21.80;98.50
9668;DHT22;4872;48.316;10.650;2022-09-01T12:55:11;21.80;98.00
9668;DHT22;4872;48.316;10.650;2022-09-01T12:57:45;21.80;98.00
9668;DHT22;4872;48.316;10.650;2022-09-01T13:00:17;21.70;97.50
9668;DHT22;4872;48.316;10.650;2022-09-01T13:02:46;21.80;97.50
9668;DHT22;4872;48.316;10.650;2022-09-01T13:05:23;21.80;97.10
9668;DHT22;4872;48.316;10.650;2022-09-01T13:07:52;21.80;97.20
9668;DHT22;4872;48.316;10.650;2022-09-01T13:10:20;22.00;97.30
9668;DHT22;4872;48.316;10.650;2022-09-01T13:12:47;22.00;96.80
9668;DHT22;4872;48.316;10.650;2022-09-01T13:15:15;22.10;97.10
9668;DHT22;4872;48.316;10.650;2022-09-01T13:17:42;22.10;96.90
9668;DHT22;4872;48.316;10.650;2022-09-01T13:20:10;22.10;96.30
9668;DHT22;4872;48.316;10.650;2022-09-01T13:22:39;22.10;96.60
9668;DHT22;4872;48.316;10.650;2022-09-01T13:25:09;22.10;96.60
9668;DHT22;4872;48.316;10.650;2022-09-01T13:27:36;22.10;96.60
9668;DHT22;4872;48.316;10.650;2022-09-01T13:30:06;22.00;96.10
9668;DHT22;4872;48.316;10.650;2022-09-01T13:32:32;21.90;95.90
9668;DHT22;4872;48.316;10.650;2022-09-01T13:34:59;21.90;95.60
9668;DHT22;4872;48.316;10.650;2022-09-01T13:37:26;22.00;95.90
9668;DHT22;4872;48.316;10.650;2022-09-01T13:39:54;21.90;96.40
9668;DHT22;4872;48.316;10.650;2022-09-01T13:42:21;21.80;95.60
9668;DHT22;4872;48.316;10.650;2022-09-01T13:44:47;21.80;95.80
9668;DHT22;4872;48.316;10.650;2022-09-01T13:47:14;21.80;95.30
9668;DHT22;4872;48.316;10.650;2022-09-01T13:49:41;21.70;95.20
9668;DHT22;4872;48.316;10.650;2022-09-01T13:52:08;21.80;95.10
9668;DHT22;4872;48.316;10.650;2022-09-01T13:54:34;21.90;95.30
9668;DHT22;4872;48.316;10.650;2022-09-01T13:57:03;21.90;95.30
9668;DHT22;4872;48.316;10.650;2022-09-01T13:59:29;21.90;95.40
9668;DHT22;4872;48.316;10.650;2022-09-01T14:01:57;22.10;95.80
9668;DHT22;4872;48.316;10.650;2022-09-01T14:04:24;22.20;96.20
9668;DHT22;4872;48.316;10.650;2022-09-01T14:06:50;22.40;96.60
9668;DHT22;4872;48.316;10.650;2022-09-01T14:09:18;22.80;97.10
9668;DHT22;4872;48.316;10.650;2022-09-01T14:11:44;23.00;96.60
9668;DHT22;4872;48.316;10.650;2022-09-01T14:14:12;23.30;95.70
9668;DHT22;4872;48.316;10.650;2022-09-01T14:16:39;23.60;95.50
9668;DHT22;4872;48.316;10.650;2022-09-01T14:19:06;24.20;95.50
9668;DHT22;4872;48.316;10.650;2022-09-01T14:21:33;24.70;94.80
9668;DHT22;4872;48.316;10.650;2022-09-01T14:23:59;25.20;93.90
9668;DHT22;4872;48.316;10.650;2022-09-01T14:26:26;25.40;91.90
9668;DHT22;4872;48.316;10.650;2022-09-01T14:28:53;25.60;91.50
9668;DHT22;4872;48.316;10.650;2022-09-01T14:31:21;25.90;91.20
9668;DHT22;4872;48.316;10.650;2022-09-01T14:33:48;26.20;89.40
9668;DHT22;4872;48.316;10.650;2022-09-01T14:36:17;26.40;87.70
9668;DHT22;4872;48.316;10.650;2022-09-01T14:38:44;26.50;88.00
9668;DHT22;4872;48.316;10.650;2022-09-01T14:41:12;26.60;85.90
9668;DHT22;4872;48.316;10.650;2022-09-01T14:43:40;27.00;86.50
9668;DHT22;4872;48.316;10.650;2022-09-01T14:46:08;27.30;85.10
9668;DHT22;4872;48.316;10.650;2022-09-01T14:48:39;27.70;85.10
9668;DHT22;4872;48.316;10.650;2022-09-01T14:51:07;28.10;81.90
9668;DHT22;4872;48.316;10.650;2022-09-01T14:53:34;28.40;80.80
9668;DHT22;4872;48.316;10.650;2022-09-01T14:56:01;28.60;77.40
9668;DHT22;4872;48.316;10.650;2022-09-01T14:58:29;28.80;76.70
9668;DHT22;4872;48.316;10.650;2022-09-01T15:00:56;29.00;74.40
9668;DHT22;4872;48.316;10.650;2022-09-01T15:03:23;29.20;73.60
9668;DHT22;4872;48.316;10.650;2022-09-01T15:05:52;29.40;73.00
9668;DHT22;4872;48.316;10.650;2022-09-01T15:08:19;29.60;72.00
9668;DHT22;4872;48.316;10.650;2022-09-01T15:10:46;29.70;70.50
9668;DHT22;4872;48.316;10.650;2022-09-01T15:13:13;29.80;69.40
9668;DHT22;4872;48.316;10.650;2022-09-01T15:15:40;29.90;67.50
9668;DHT22;4872;48.316;10.650;2022-09-01T15:18:06;29.90;67.00
9668;DHT22;4872;48.316;10.650;2022-09-01T15:20:38;29.70;65.10
9668;DHT22;4872;48.316;10.650;2022-09-01T15:23:14;29.50;64.60
9668;DHT22;4872;48.316;10.650;2022-09-01T15:25:41;29.50;65.70
9668;DHT22;4872;48.316;10.650;2022-09-01T15:28:08;29.50;65.30
9668;DHT22;4872;48.316;10.650;2022-09-01T15:30:35;29.70;64.80
9668;DHT22;4872;48.316;10.650;2022-09-01T15:33:03;29.80;64.20
9668;DHT22;4872;48.316;10.650;2022-09-01T15:35:31;29.70;63.00
9668;DHT22;4872;48.316;10.650;2022-09-01T15:37:58;29.80;62.70
9668;DHT22;4872;48.316;10.650;2022-09-01T15:40:27;29.80;61.60
9668;DHT22;4872;48.316;10.650;2022-09-01T15:42:55;29.80;62.30
9668;DHT22;4872;48.316;10.650;2022-09-01T15:45:23;29.80;61.40
9668;DHT22;4872;48.316;10.650;2022-09-01T15:47:50;29.70;61.10
9668;DHT22;4872;48.316;10.650;2022-09-01T15:50:18;29.50;61.10
9668;DHT22;4872;48.316;10.650;2022-09-01T15:52:49;29.40;61.10
9668;DHT22;4872;48.316;10.650;2022-09-01T15:55:19;29.40;61.20
9668;DHT22;4872;48.316;10.650;2022-09-01T15:57:47;29.30;61.10
9668;DHT22;4872;48.316;10.650;2022-09-01T16:00:15;29.10;60.90
9668;DHT22;4872;48.316;10.650;2022-09-01T16:02:42;29.10;60.50
9668;DHT22;4872;48.316;10.650;2022-09-01T16:05:10;28.80;59.90
9668;DHT22;4872;48.316;10.650;2022-09-01T16:07:37;28.80;61.60
9668;DHT22;4872;48.316;10.650;2022-09-01T16:10:05;28.60;61.40
9668;DHT22;4872;48.316;10.650;2022-09-01T16:12:37;28.40;60.40
9668;DHT22;4872;48.316;10.650;2022-09-01T16:15:07;28.10;60.40
9668;DHT22;4872;48.316;10.650;2022-09-01T16:17:45;27.50;61.50
9668;DHT22;4872;48.316;10.650;2022-09-01T16:20:18;27.00;62.30
9668;DHT22;4872;48.316;10.650;2022-09-01T16:22:52;26.80;62.50
9668;DHT22;4872;48.316;10.650;2022-09-01T16:25:25;26.60;63.20
9668;DHT22;4872;48.316;10.650;2022-09-01T16:27:54;26.40;63.50
9668;DHT22;4872;48.316;10.650;2022-09-01T16:30:25;26.30;62.10
9668;DHT22;4872;48.316;10.650;2022-09-01T16:32:56;25.90;62.20
9668;DHT22;4872;48.316;10.650;2022-09-01T16:35:29;25.40;62.70
9668;DHT22;4872;48.316;10.650;2022-09-01T16:38:08;25.10;64.10
9668;DHT22;4872;48.316;10.650;2022-09-01T16:40:44;24.60;64.60
9668;DHT22;4872;48.316;10.650;2022-09-01T16:43:17;24.20;65.40
9668;DHT22;4872;48.316;10.650;2022-09-01T16:45:56;23.90;66.40
9668;DHT22;4872;48.316;10.650;2022-09-01T16:48:33;23.50;66.90
9668;DHT22;4872;48.316;10.650;2022-09-01T16:51:10;23.40;67.60
9668;DHT22;4872;48.316;10.650;2022-09-01T16:53:49;23.20;68.90
9668;DHT22;4872;48.316;10.650;2022-09-01T16:56:23;23.00;69.50
9668;DHT22;4872;48.316;10.650;2022-09-01T16:58:57;22.70;69.30
9668;DHT22;4872;48.316;10.650;2022-09-01T17:01:36;22.60;69.00
9668;DHT22;4872;48.316;10.650;2022-09-01T17:04:20;22.50;69.10
9668;DHT22;4872;48.316;10.650;2022-09-01T17:06:56;22.20;70.10
9668;DHT22;4872;48.316;10.650;2022-09-01T17:09:29;22.00;70.60
9668;DHT22;4872;48.316;10.650;2022-09-01T17:12:11;21.90;71.40
9668;DHT22;4872;48.316;10.650;2022-09-01T17:14:42;21.70;72.40
9668;DHT22;4872;48.316;10.650;2022-09-01T17:17:16;21.50;73.20
9668;DHT22;4872;48.316;10.650;2022-09-01T17:19:45;21.40;73.70
9668;DHT22;4872;48.316;10.650;2022-09-01T17:22:18;21.40;74.20
9668;DHT22;4872;48.316;10.650;2022-09-01T17:24:49;21.30;75.00
9668;DHT22;4872;48.316;10.650;2022-09-01T17:27:20;21.20;75.60
9668;DHT22;4872;48.316;10.650;2022-09-01T17:29:51;21.10;75.70
9668;DHT22;4872;48.316;10.650;2022-09-01T17:32:37;20.90;75.90
9668;DHT22;4872;48.316;10.650;2022-09-01T17:35:13;20.90;76.40
9668;DHT22;4872;48.316;10.650;2022-09-01T17:37:52;20.90;76.90
9668;DHT22;4872;48.316;10.650;2022-09-01T17:40:25;20.60;77.10
9668;DHT22;4872;48.316;10.650;2022-09-01T17:42:58;20.50;77.20
9668;DHT22;4872;48.316;10.650;2022-09-01T17:45:32;20.40;77.50
9668;DHT22;4872;48.316;10.650;2022-09-01T17:48:08;20.30;78.30
9668;DHT22;4872;48.316;10.650;2022-09-01T17:50:50;20.20;79.20
9668;DHT22;4872;48.316;10.650;2022-09-01T17:53:27;20.00;80.00
9668;DHT22;4872;48.316;10.650;2022-09-01T17:55:59;20.00;80.50
9668;DHT22;4872;48.316;10.650;2022-09-01T17:58:38;19.90;81.00
9668;DHT22;4872;48.316;10.650;2022-09-01T18:01:12;19.90;80.80
9668;DHT22;4872;48.316;10.650;2022-09-01T18:04:05;19.70;80.30
9668;DHT22;4872;48.316;10.650;2022-09-01T18:06:42;19.60;79.10
9668;DHT22;4872;48.316;10.650;2022-09-01T18:09:11;19.50;79.10
9668;DHT22;4872;48.316;10.650;2022-09-01T18:11:48;19.30;79.20
9668;DHT22;4872;48.316;10.650;2022-09-01T18:14:20;19.40;79.70
9668;DHT22;4872;48.316;10.650;2022-09-01T18:16:56;19.30;79.80
9668;DHT22;4872;48.316;10.650;2022-09-01T18:19:28;19.20;80.00
9668;DHT22;4872;48.316;10.650;2022-09-01T18:22:00;19.20;80.60
9668;DHT22;4872;48.316;10.650;2022-09-01T18:24:41;19.20;80.90
9668;DHT22;4872;48.316;10.650;2022-09-01T18:27:11;19.00;81.00
9668;DHT22;4872;48.316;10.650;2022-09-01T18:29:37;18.90;80.70
9668;DHT22;4872;48.316;10.650;2022-09-01T18:32:14;18.90;80.90
9668;DHT22;4872;48.316;10.650;2022-09-01T18:35:07;18.80;81.10
9668;DHT22;4872;48.316;10.650;2022-09-01T18:37:46;18.80;81.30
9668;DHT22;4872;48.316;10.650;2022-09-01T18:40:20;18.70;81.60
9668;DHT22;4872;48.316;10.650;2022-09-01T18:42:56;18.80;82.30
9668;DHT22;4872;48.316;10.650;2022-09-01T18:45:31;18.60;82.30
9668;DHT22;4872;48.316;10.650;2022-09-01T18:48:08;18.60;82.40
9668;DHT22;4872;48.316;10.650;2022-09-01T18:50:46;18.60;82.50
9668;DHT22;4872;48.316;10.650;2022-09-01T18:53:23;18.50;83.10
9668;DHT22;4872;48.316;10.650;2022-09-01T18:55:58;18.60;83.10
9668;DHT22;4872;48.316;10.650;2022-09-01T18:58:35;18.50;83.20
9668;DHT22;4872;48.316;10.650;2022-09-01T19:01:06;18.30;83.70
9668;DHT22;4872;48.316;10.650;2022-09-01T19:03:36;18.20;83.90
9668;DHT22;4872;48.316;10.650;2022-09-01T19:06:22;18.20;83.90
9668;DHT22;4872;48.316;10.650;2022-09-01T19:09:01;18.20;84.10
9668;DHT22;4872;48.316;10.650;2022-09-01T19:11:50;18.10;84.20
9668;DHT22;4872;48.316;10.650;2022-09-01T19:14:28;18.00;83.90
9668;DHT22;4872;48.316;10.650;2022-09-01T19:17:09;18.00;83.90
9668;DHT22;4872;48.316;10.650;2022-09-01T19:19:44;18.00;84.10
9668;DHT22;4872;48.316;10.650;2022-09-01T19:22:17;17.80;84.10
9668;DHT22;4872;48.316;10.650;2022-09-01T19:24:48;17.80;84.20
9668;DHT22;4872;48.316;10.650;2022-09-01T19:27:20;17.60;84.30
9668;DHT22;4872;48.316;10.650;2022-09-01T19:29:53;17.60;84.10
9668;DHT22;4872;48.316;10.650;2022-09-01T19:32:22;17.50;84.40
9668;DHT22;4872;48.316;10.650;2022-09-01T19:34:55;17.30;84.30
9668;DHT22;4872;48.316;10.650;2022-09-01T19:37:24;17.40;84.70
9668;DHT22;4872;48.316;10.650;2022-09-01T19:39:51;17.40;85.00
9668;DHT22;4872;48.316;10.650;2022-09-01T19:42:22;17.40;85.00
9668;DHT22;4872;48.316;10.650;2022-09-01T19:44:55;17.30;85.30
9668;DHT22;4872;48.316;10.650;2022-09-01T19:47:28;17.30;85.20
9668;DHT22;4872;48.316;10.650;2022-09-01T19:50:04;17.30;85.40
9668;DHT22;4872;48.316;10.650;2022-09-01T19:52:39;17.20;85.80
9668;DHT22;4872;48.316;10.650;2022-09-01T19:55:14;17.20;86.00
9668;DHT22;4872;48.316;10.650;2022-09-01T19:57:47;17.20;86.20
9668;DHT22;4872;48.316;10.650;2022-09-01T20:00:21;17.10;86.00
9668;DHT22;4872;48.316;10.650;2022-09-01T20:02:51;17.10;86.10
9668;DHT22;4872;48.316;10.650;2022-09-01T20:05:25;17.10;86.30
9668;DHT22;4872;48.316;10.650;2022-09-01T20:07:59;17.10;86.60
9668;DHT22;4872;48.316;10.650;2022-09-01T20:10:39;17.20;87.20
9668;DHT22;4872;48.316;10.650;2022-09-01T20:13:28;17.10;86.90
9668;DHT22;4872;48.316;10.650;2022-09-01T20:16:02;17.20;87.10
9668;DHT22;4872;48.316;10.650;2022-09-01T20:18:38;17.20;87.60
9668;DHT22;4872;48.316;10.650;2022-09-01T20:21:09;17.10;88.20
9668;DHT22;4872;48.316;10.650;2022-09-01T20:23:43;16.90;88.20
9668;DHT22;4872;48.316;10.650;2022-09-01T20:26:16;16.90;89.20
9668;DHT22;4872;48.316;10.650;2022-09-01T20:28:49;16.90;89.90
9668;DHT22;4872;48.316;10.650;2022-09-01T20:31:22;16.90;90.10
9668;DHT22;4872;48.316;10.650;2022-09-01T20:33:56;16.80;90.30